Time;durP1;ratioP1;P1;durP2;ratioP2;P2;SDS_P1;SDS_P2;PMS_P1;PMS_P2;Temp;Humidity;BMP_temperature;BMP_pressure;BME280_temperature;BME280_humidity;BME280_pressure;Samples;Min_cycle;Max_cycle;Signal;HPM_P1;HPM_P2
2022/09/28 00:01:05;;;;;;;6.65;5.80;;;;;;;;;;4984214;28;20442;-82
2022/09/28 00:03:31;;;;;;;5.40;4.60;;;;;;;;;;4980940;28;20430;-83
2022/09/28 00:06:01;;;;;;;6.78;5.10;;;;;;;;;;4984167;28;20443;-82
2022/09/28 00:08:28;;;;;;;6.65;5.28;;;;;;;;;;4984237;28;20965;-82
2022/09/28 00:10:55;;;;;;;5.70;5.20;;;;;;;;;;4982730;28;20814;-83
2022/09/28 00:13:22;;;;;;;7.00;5.90;;;;;;;;;;4984841;28;20436;-84
2022/09/28 00:15:48;;;;;;;7.68;5.53;;;;;;;;;;4985735;28;20434;-85
2022/09/28 00:18:14;;;;;;;5.90;5.30;;;;;;;;;;4984072;28;20439;-83
2022/09/28 00:20:41;;;;;;;7.05;5.90;;;;;;;;;;4985635;28;20443;-83
2022/09/28 00:23:07;;;;;;;6.30;5.70;;;;;;;;;;4983835;28;20438;-83
2022/09/28 00:25:36;;;;;;;6.35;5.45;;;;;;;;;;4983537;28;20428;-85
2022/09/28 00:28:04;;;;;;;6.30;5.70;;;;;;;;;;4984912;28;20434;-83
2022/09/28 00:30:31;;;;;;;7.15;5.90;;;;;;;;;;4985677;28;20444;-85
2022/09/28 00:32:58;;;;;;;7.85;5.60;;;;;;;;;;4984142;28;20430;-86
2022/09/28 00:35:24;;;;;;;7.70;5.33;;;;;;;;;;5014132;28;20442;-85
2022/09/28 00:37:51;;;;;;;6.78;6.03;;;;;;;;;;4980865;28;20440;-83
2022/09/28 00:40:17;;;;;;;6.68;5.97;;;;;;;;;;4982499;28;20430;-83
2022/09/28 00:42:45;;;;;;;6.10;5.50;;;;;;;;;;4983804;28;21070;-83
2022/09/28 00:45:11;;;;;;;5.95;5.38;;;;;;;;;;4987280;28;20923;-84
2022/09/28 00:47:43;;;;;;;6.40;5.70;;;;;;;;;;4982484;28;20518;-83
2022/09/28 00:50:14;;;;;;;9.13;5.90;;;;;;;;;;4982587;28;20529;-85
2022/09/28 00:52:42;;;;;;;6.93;6.27;;;;;;;;;;4980773;28;20503;-83
2022/09/28 00:55:11;;;;;;;7.80;6.40;;;;;;;;;;4983394;28;20434;-84
2022/09/28 00:57:39;;;;;;;7.35;5.95;;;;;;;;;;4985374;28;20442;-82
2022/09/28 01:00:08;;;;;;;8.10;6.10;;;;;;;;;;4984761;28;20437;-83
2022/09/28 01:02:35;;;;;;;8.35;6.43;;;;;;;;;;4982201;28;20437;-83
2022/09/28 01:05:03;;;;;;;7.18;5.40;;;;;;;;;;4983641;28;20436;-84
2022/09/28 01:07:33;;;;;;;6.10;5.50;;;;;;;;;;4982871;28;20442;-84
2022/09/28 01:09:59;;;;;;;7.30;5.97;;;;;;;;;;4983861;28;20441;-83
2022/09/28 01:12:27;;;;;;;6.75;6.07;;;;;;;;;;4984859;28;20449;-83
2022/09/28 01:14:53;;;;;;;8.13;5.85;;;;;;;;;;4984895;28;20454;-82
2022/09/28 01:17:25;;;;;;;10.65;6.50;;;;;;;;;;4981631;28;20433;-85
2022/09/28 01:20:10;;;;;;;9.10;6.32;;;;;;;;;;4980899;28;20438;-82
2022/09/28 01:22:53;;;;;;;6.65;5.95;;;;;;;;;;4980258;28;20486;-84
2022/09/28 01:25:24;;;;;;;6.78;5.50;;;;;;;;;;4983949;28;20952;-86
2022/09/28 01:27:54;;;;;;;6.22;5.15;;;;;;;;;;4982939;28;20430;-83
2022/09/28 01:30:21;;;;;;;6.35;5.68;;;;;;;;;;4981669;28;20439;-84
2022/09/28 01:32:49;;;;;;;5.72;5.20;;;;;;;;;;4981166;28;20439;-83
2022/09/28 01:35:18;;;;;;;6.60;5.50;;;;;;;;;;4986156;28;20439;-86
2022/09/28 01:37:48;;;;;;;6.47;5.87;;;;;;;;;;4981695;28;20444;-82
2022/09/28 01:40:15;;;;;;;7.20;5.97;;;;;;;;;;4983767;28;20431;-83
2022/09/28 01:42:43;;;;;;;6.10;5.50;;;;;;;;;;4984968;28;20430;-83
2022/09/28 01:45:14;;;;;;;6.90;5.75;;;;;;;;;;4986009;28;20419;-83
2022/09/28 01:47:41;;;;;;;6.40;5.68;;;;;;;;;;4981783;28;20424;-83
2022/09/28 01:50:10;;;;;;;6.40;5.80;;;;;;;;;;4983158;28;20417;-83
2022/09/28 01:52:40;;;;;;;5.50;5.00;;;;;;;;;;4982781;28;20956;-83
2022/09/28 01:55:10;;;;;;;5.60;5.10;;;;;;;;;;4982559;28;20492;-83
2022/09/28 01:57:42;;;;;;;5.90;5.30;;;;;;;;;;4981361;28;20430;-84
2022/09/28 02:00:13;;;;;;;6.55;5.80;;;;;;;;;;4983013;28;20442;-83
2022/09/28 02:02:41;;;;;;;6.28;5.68;;;;;;;;;;4983176;28;20439;-83
2022/09/28 02:05:09;;;;;;;7.75;6.07;;;;;;;;;;4980351;28;20443;-83
2022/09/28 02:07:38;;;;;;;6.55;5.95;;;;;;;;;;4983708;28;20430;-83
2022/09/28 02:10:08;;;;;;;7.80;6.03;;;;;;;;;;4983451;28;20426;-84
2022/09/28 02:12:36;;;;;;;7.53;6.32;;;;;;;;;;4984712;28;20920;-84
2022/09/28 02:15:12;;;;;;;6.90;6.03;;;;;;;;;;4982288;28;20445;-85
2022/09/28 02:17:40;;;;;;;7.80;6.47;;;;;;;;;;4980994;28;20421;-84
2022/09/28 02:20:07;;;;;;;8.87;6.77;;;;;;;;;;4982241;28;20566;-84
2022/09/28 02:22:39;;;;;;;8.00;7.20;;;;;;;;;;4982180;28;20432;-83
2022/09/28 02:25:08;;;;;;;8.40;7.60;;;;;;;;;;4982406;28;20453;-84
2022/09/28 02:27:36;;;;;;;9.45;7.70;;;;;;;;;;4980128;28;20464;-83
2022/09/28 02:30:05;;;;;;;8.02;7.10;;;;;;;;;;4982616;28;20438;-87
2022/09/28 02:32:33;;;;;;;8.53;7.70;;;;;;;;;;4984463;28;20435;-83
2022/09/28 02:35:01;;;;;;;8.68;7.35;;;;;;;;;;4984712;28;20935;-84
2022/09/28 02:37:28;;;;;;;9.35;7.35;;;;;;;;;;4985112;28;20426;-84
2022/09/28 02:39:54;;;;;;;10.57;7.85;;;;;;;;;;4984761;28;20418;-84
2022/09/28 02:42:24;;;;;;;9.95;7.75;;;;;;;;;;4982996;28;20426;-85
2022/09/28 02:44:57;;;;;;;10.80;8.80;;;;;;;;;;4987113;28;20426;-83
2022/09/28 02:47:30;;;;;;;11.82;8.60;;;;;;;;;;4987790;28;20435;-83
2022/09/28 02:50:01;;;;;;;9.45;8.55;;;;;;;;;;4986455;28;20948;-83
2022/09/28 02:52:39;;;;;;;11.50;8.60;;;;;;;;;;4984022;28;20436;-84
2022/09/28 02:55:12;;;;;;;11.98;9.13;;;;;;;;;;4987503;28;20442;-84
2022/09/28 02:57:46;;;;;;;11.18;9.98;;;;;;;;;;4984635;28;20430;-83
2022/09/28 03:00:15;;;;;;;10.82;9.63;;;;;;;;;;4987621;28;20513;-84
2022/09/28 03:02:48;;;;;;;12.63;9.77;;;;;;;;;;4983878;28;20440;-83
2022/09/28 03:05:17;;;;;;;13.05;9.60;;;;;;;;;;4985250;28;20426;-83
2022/09/28 03:07:48;;;;;;;13.27;9.90;;;;;;;;;;4984511;28;20926;-83
2022/09/28 03:10:16;;;;;;;10.93;9.80;;;;;;;;;;4985538;28;20443;-83
2022/09/28 03:12:44;;;;;;;12.25;9.82;;;;;;;;;;4984979;28;20432;-84
2022/09/28 03:15:13;;;;;;;13.32;10.48;;;;;;;;;;5003037;28;20436;-83
2022/09/28 03:17:42;;;;;;;11.25;10.05;;;;;;;;;;4983780;28;20430;-84
2022/09/28 03:20:10;;;;;;;14.60;10.38;;;;;;;;;;4982855;28;20439;-83
2022/09/28 03:22:36;;;;;;;12.38;10.50;;;;;;;;;;4982841;28;20990;-84
2022/09/28 03:25:05;;;;;;;13.02;11.10;;;;;;;;;;4986404;28;20431;-85
2022/09/28 03:27:33;;;;;;;12.05;10.45;;;;;;;;;;4982772;28;20434;-83
2022/09/28 03:30:00;;;;;;;14.98;10.88;;;;;;;;;;4986993;28;20426;-85
2022/09/28 03:32:26;;;;;;;12.57;10.32;;;;;;;;;;4985829;28;20427;-83
2022/09/28 03:34:54;;;;;;;13.90;10.00;;;;;;;;;;4989228;28;20434;-85
2022/09/28 03:37:21;;;;;;;11.68;9.40;;;;;;;;;;4983135;28;20950;-83
2022/09/28 03:39:48;;;;;;;9.43;8.45;;;;;;;;;;4986354;28;20492;-83
2022/09/28 03:42:16;;;;;;;10.70;9.57;;;;;;;;;;4985392;28;20426;-83
2022/09/28 03:44:42;;;;;;;12.00;10.80;;;;;;;;;;4984231;28;20785;-86
2022/09/28 03:47:08;;;;;;;11.53;9.80;;;;;;;;;;4983447;28;21006;-84
2022/09/28 03:49:35;;;;;;;14.70;11.20;;;;;;;;;;4984151;28;20447;-84
2022/09/28 03:52:02;;;;;;;12.82;11.20;;;;;;;;;;4985789;28;20443;-83
2022/09/28 03:54:29;;;;;;;14.57;11.13;;;;;;;;;;4987105;28;20539;-84
2022/09/28 03:56:55;;;;;;;12.68;10.52;;;;;;;;;;4982664;28;20776;-84
2022/09/28 03:59:23;;;;;;;13.15;11.75;;;;;;;;;;4984121;28;20951;-83
2022/09/28 04:01:50;;;;;;;15.53;11.40;;;;;;;;;;4984873;28;20428;-84
2022/09/28 04:04:16;;;;;;;12.80;10.70;;;;;;;;;;4986293;28;20440;-83
2022/09/28 04:06:43;;;;;;;14.60;11.50;;;;;;;;;;4985483;28;20438;-83
2022/09/28 04:09:09;;;;;;;12.95;11.10;;;;;;;;;;4985697;28;20793;-84
2022/09/28 04:11:36;;;;;;;14.18;11.68;;;;;;;;;;4987389;28;20437;-83
2022/09/28 04:14:02;;;;;;;17.80;11.68;;;;;;;;;;4987452;28;20434;-84
2022/09/28 04:16:30;;;;;;;13.35;11.70;;;;;;;;;;4985254;28;20431;-83
2022/09/28 04:18:57;;;;;;;14.40;11.52;;;;;;;;;;4987627;28;20430;-83
2022/09/28 04:21:24;;;;;;;13.50;11.20;;;;;;;;;;4985956;28;20420;-84
2022/09/28 04:23:51;;;;;;;13.57;11.80;;;;;;;;;;4986175;28;20434;-82
2022/09/28 04:26:19;;;;;;;16.17;12.35;;;;;;;;;;4983549;28;20430;-84
2022/09/28 04:31:36;;;;;;;14.10;12.30;;;;;;;;;;4984148;28;20433;-83
2022/09/28 04:34:03;;;;;;;12.67;11.33;;;;;;;;;;4986598;28;20442;-83
2022/09/28 04:36:30;;;;;;;15.55;11.80;;;;;;;;;;4984740;28;20965;-85
2022/09/28 04:38:57;;;;;;;14.63;11.38;;;;;;;;;;4984668;28;20441;-85
2022/09/28 04:41:24;;;;;;;14.63;11.38;;;;;;;;;;4982759;28;20475;-85
2022/09/28 04:43:50;;;;;;;13.57;11.73;;;;;;;;;;4985298;28;20575;-84
2022/09/28 04:46:17;;;;;;;14.65;11.10;;;;;;;;;;4982472;28;20944;-85
2022/09/28 04:48:45;;;;;;;13.65;11.50;;;;;;;;;;4982144;28;20438;-84
2022/09/28 04:51:11;;;;;;;14.65;12.57;;;;;;;;;;4986251;28;20801;-85
2022/09/28 04:53:38;;;;;;;15.93;12.43;;;;;;;;;;4983644;28;20973;-82
2022/09/28 04:56:06;;;;;;;20.80;13.63;;;;;;;;;;4982753;28;20928;-83
2022/09/28 04:58:34;;;;;;;16.40;13.25;;;;;;;;;;4982156;28;20440;-84
2022/09/28 05:01:02;;;;;;;17.50;13.55;;;;;;;;;;4985091;28;20434;-85
2022/09/28 05:03:28;;;;;;;18.38;14.00;;;;;;;;;;4983058;28;20434;-83
2022/09/28 05:05:56;;;;;;;16.35;14.05;;;;;;;;;;4981663;28;20431;-83
2022/09/28 05:08:22;;;;;;;17.40;13.55;;;;;;;;;;4983392;28;20516;-84
2022/09/28 05:10:49;;;;;;;16.27;12.82;;;;;;;;;;4984192;28;20517;-84
2022/09/28 05:13:17;;;;;;;17.15;13.77;;;;;;;;;;5015581;28;20434;-83
2022/09/28 05:15:43;;;;;;;15.05;12.15;;;;;;;;;;4982425;28;20442;-84
2022/09/28 05:18:10;;;;;;;16.80;12.45;;;;;;;;;;4983916;28;20428;-84
2022/09/28 05:20:40;;;;;;;19.17;14.15;;;;;;;;;;4984658;28;20439;-85
2022/09/28 05:23:08;;;;;;;16.60;13.60;;;;;;;;;;4983477;28;20585;-86
2022/09/28 05:25:35;;;;;;;15.80;13.38;;;;;;;;;;4984354;28;20801;-83
2022/09/28 05:28:02;;;;;;;19.23;13.45;;;;;;;;;;4983502;28;20434;-84
2022/09/28 05:30:29;;;;;;;20.23;15.77;;;;;;;;;;4982868;28;20447;-82
2022/09/28 05:32:55;;;;;;;21.57;17.13;;;;;;;;;;4983705;28;20432;-83
2022/09/28 05:35:24;;;;;;;24.98;18.58;;;;;;;;;;4980994;28;20427;-83
2022/09/28 05:37:51;;;;;;;22.42;18.02;;;;;;;;;;4983334;28;20438;-84
2022/09/28 05:40:18;;;;;;;20.60;15.80;;;;;;;;;;4982693;28;20856;-83
2022/09/28 05:42:46;;;;;;;24.67;18.47;;;;;;;;;;4982222;28;20521;-85
2022/09/28 05:45:13;;;;;;;26.52;20.58;;;;;;;;;;4984416;28;20934;-83
2022/09/28 05:47:40;;;;;;;26.67;19.20;;;;;;;;;;4984692;28;20442;-82
2022/09/28 05:50:07;;;;;;;30.38;20.50;;;;;;;;;;4982762;28;20446;-84
2022/09/28 05:52:35;;;;;;;27.67;19.92;;;;;;;;;;4983370;28;20434;-86
2022/09/28 05:55:02;;;;;;;29.90;21.50;;;;;;;;;;4984197;28;20435;-84
2022/09/28 05:57:30;;;;;;;27.60;20.25;;;;;;;;;;4982031;28;20435;-85
2022/09/28 05:59:56;;;;;;;25.33;18.80;;;;;;;;;;4982418;28;20435;-84
2022/09/28 06:02:23;;;;;;;23.92;19.08;;;;;;;;;;4985807;28;20518;-86
2022/09/28 06:04:50;;;;;;;27.23;18.77;;;;;;;;;;4983227;28;20442;-84
2022/09/28 06:07:16;;;;;;;25.10;17.67;;;;;;;;;;4981656;28;20839;-83
2022/09/28 06:09:43;;;;;;;24.75;19.00;;;;;;;;;;5018301;28;20439;-84
2022/09/28 06:12:09;;;;;;;24.35;17.52;;;;;;;;;;4985452;28;20445;-83
2022/09/28 06:14:37;;;;;;;23.67;18.17;;;;;;;;;;4986523;28;20438;-83
2022/09/28 06:17:04;;;;;;;26.02;18.17;;;;;;;;;;4987201;28;20512;-82
2022/09/28 06:19:30;;;;;;;23.40;18.17;;;;;;;;;;4988911;28;20444;-84
2022/09/28 06:21:57;;;;;;;24.92;16.40;;;;;;;;;;4985501;28;20947;-86
2022/09/28 06:24:24;;;;;;;24.40;17.10;;;;;;;;;;4984914;28;20833;-84
2022/09/28 06:26:50;;;;;;;20.85;16.27;;;;;;;;;;4986904;28;20769;-82
2022/09/28 06:29:17;;;;;;;23.80;16.50;;;;;;;;;;4987212;28;20432;-82
2022/09/28 06:31:46;;;;;;;26.00;17.15;;;;;;;;;;4987656;28;20424;-83
2022/09/28 06:34:13;;;;;;;23.48;16.33;;;;;;;;;;4986320;28;22644;-83
2022/09/28 06:36:40;;;;;;;22.77;16.02;;;;;;;;;;4985599;28;20424;-83
2022/09/28 06:39:07;;;;;;;22.83;15.02;;;;;;;;;;4985398;28;20441;-84
2022/09/28 06:41:33;;;;;;;20.33;14.25;;;;;;;;;;5016147;28;20443;-84
2022/09/28 06:44:00;;;;;;;23.33;14.50;;;;;;;;;;4986637;28;20525;-82
2022/09/28 06:46:27;;;;;;;20.40;13.57;;;;;;;;;;4990940;28;20416;-81
2022/09/28 06:48:55;;;;;;;19.92;13.38;;;;;;;;;;4988949;28;20439;-83
2022/09/28 06:51:21;;;;;;;19.73;12.70;;;;;;;;;;4987036;28;20441;-82
2022/09/28 06:53:54;;;;;;;15.85;12.02;;;;;;;;;;4989554;28;20840;-82
2022/09/28 06:56:20;;;;;;;15.70;11.48;;;;;;;;;;4986984;28;20997;-83
2022/09/28 06:58:48;;;;;;;16.52;11.68;;;;;;;;;;4986272;28;20493;-84
2022/09/28 07:01:14;;;;;;;15.13;11.15;;;;;;;;;;4987963;28;20457;-82
2022/09/28 07:03:42;;;;;;;16.45;11.68;;;;;;;;;;4992537;28;20435;-83
2022/09/28 07:06:11;;;;;;;15.43;11.95;;;;;;;;;;4990236;28;20808;-82
2022/09/28 07:08:37;;;;;;;17.05;11.80;;;;;;;;;;4990077;28;20927;-81
2022/09/28 07:11:05;;;;;;;15.90;11.70;;;;;;;;;;4987647;28;20426;-81
2022/09/28 07:13:31;;;;;;;15.68;11.25;;;;;;;;;;5016705;28;20426;-82
2022/09/28 07:15:58;;;;;;;16.48;12.10;;;;;;;;;;4985276;28;20593;-81
2022/09/28 07:18:25;;;;;;;15.73;11.73;;;;;;;;;;4985952;28;20959;-83
2022/09/28 07:20:52;;;;;;;15.10;11.73;;;;;;;;;;4983186;28;21044;-84
2022/09/28 07:23:20;;;;;;;15.82;12.43;;;;;;;;;;4982012;28;20447;-87
2022/09/28 07:25:48;;;;;;;18.25;13.07;;;;;;;;;;4985224;28;20809;-84
2022/09/28 07:28:16;;;;;;;17.85;12.40;;;;;;;;;;4986451;28;20437;-84
2022/09/28 07:30:43;;;;;;;18.48;13.55;;;;;;;;;;4983805;28;20796;-85
2022/09/28 07:33:11;;;;;;;19.35;13.50;;;;;;;;;;4986470;28;20431;-84
2022/09/28 07:35:37;;;;;;;22.00;14.80;;;;;;;;;;4983551;28;20967;-84
2022/09/28 07:38:06;;;;;;;19.20;14.82;;;;;;;;;;4987117;28;20427;-83
2022/09/28 07:43:23;;;;;;;24.35;18.27;;;;;;;;;;4983640;28;20779;-83
2022/09/28 07:45:51;;;;;;;21.70;15.93;;;;;;;;;;4981244;28;20430;-84
2022/09/28 07:48:17;;;;;;;27.85;19.70;;;;;;;;;;4983395;28;20436;-83
2022/09/28 07:50:49;;;;;;;28.70;20.98;;;;;;;;;;4983601;28;20436;-83
2022/09/28 07:53:15;;;;;;;30.27;21.30;;;;;;;;;;4985119;28;20949;-84
2022/09/28 07:55:43;;;;;;;28.15;20.25;;;;;;;;;;4984343;28;20437;-85
2022/09/28 07:58:11;;;;;;;31.20;22.92;;;;;;;;;;4983390;28;20424;-86
2022/09/28 08:00:37;;;;;;;29.23;21.75;;;;;;;;;;4987499;28;20442;-82
2022/09/28 08:03:04;;;;;;;27.67;19.77;;;;;;;;;;4989732;28;20433;-84
2022/09/28 08:05:31;;;;;;;27.20;19.10;;;;;;;;;;4988793;28;20438;-84
2022/09/28 08:07:58;;;;;;;25.50;19.92;;;;;;;;;;4989562;28;20430;-83
2022/09/28 08:10:25;;;;;;;26.48;19.38;;;;;;;;;;4991384;28;20466;-84
2022/09/28 08:12:55;;;;;;;28.77;20.80;;;;;;;;;;4988868;28;20951;-83
2022/09/28 08:15:21;;;;;;;28.60;21.30;;;;;;;;;;4991067;28;20420;-83
2022/09/28 08:17:48;;;;;;;24.65;18.90;;;;;;;;;;4989188;28;20409;-83
2022/09/28 08:23:02;;;;;;;27.75;20.70;;;;;;;;;;4984657;28;20508;-84
2022/09/28 08:25:28;;;;;;;34.05;22.85;;;;;;;;;;4984058;28;20430;-85
2022/09/28 08:27:56;;;;;;;34.70;25.17;;;;;;;;;;4982386;28;20426;-83
2022/09/28 08:30:24;;;;;;;34.03;24.88;;;;;;;;;;4983449;28;20435;-84
2022/09/28 08:32:54;;;;;;;32.92;23.83;;;;;;;;;;4983810;28;20425;-83
2022/09/28 08:35:20;;;;;;;27.30;20.80;;;;;;;;;;4982996;28;20433;-84
2022/09/28 08:37:51;;;;;;;29.45;22.00;;;;;;;;;;4982809;28;20426;-85
2022/09/28 08:40:23;;;;;;;27.30;19.77;;;;;;;;;;4982192;28;20919;-83
2022/09/28 08:42:52;;;;;;;28.02;20.10;;;;;;;;;;4982600;28;20451;-83
2022/09/28 08:45:25;;;;;;;30.27;21.20;;;;;;;;;;4987343;28;20440;-83
2022/09/28 08:50:41;;;;;;;28.60;20.15;;;;;;;;;;4984889;28;20440;-83
2022/09/28 08:53:15;;;;;;;25.53;19.97;;;;;;;;;;5017687;28;20426;-86
2022/09/28 08:55:44;;;;;;;22.80;17.43;;;;;;;;;;5000554;28;20441;-84
2022/09/28 08:58:12;;;;;;;23.57;18.63;;;;;;;;;;4981329;28;20474;-84
2022/09/28 09:00:42;;;;;;;24.83;18.00;;;;;;;;;;4983640;28;20439;-83
2022/09/28 09:03:11;;;;;;;24.42;19.30;;;;;;;;;;4987039;28;20434;-82
2022/09/28 09:05:43;;;;;;;23.52;18.70;;;;;;;;;;4986851;28;20515;-81
2022/09/28 09:08:18;;;;;;;24.58;18.10;;;;;;;;;;4980934;28;20426;-83
2022/09/28 09:10:50;;;;;;;23.40;17.17;;;;;;;;;;4984141;28;20432;-81
2022/09/28 09:13:27;;;;;;;23.40;16.60;;;;;;;;;;4988871;28;21032;-83
2022/09/28 09:15:56;;;;;;;22.10;16.00;;;;;;;;;;4987503;28;20437;-84
2022/09/28 09:18:29;;;;;;;22.65;16.00;;;;;;;;;;4982081;28;20428;-81
2022/09/28 09:20:57;;;;;;;17.85;14.10;;;;;;;;;;4980093;28;20450;-81
2022/09/28 09:23:28;;;;;;;18.25;13.98;;;;;;;;;;4983182;28;21005;-82
2022/09/28 09:25:57;;;;;;;20.58;14.10;;;;;;;;;;4984401;28;20442;-81
2022/09/28 09:28:57;;;;;;;17.20;14.00;;;;;;;;;;4964575;28;20431;-81
2022/09/28 09:31:32;;;;;;;17.80;15.50;;;;;;;;;;4963078;28;20422;-83
2022/09/28 09:34:10;;;;;;;18.58;13.60;;;;;;;;;;4983416;28;20434;-82
2022/09/28 09:36:42;;;;;;;17.30;13.43;;;;;;;;;;4977969;28;20521;-82
2022/09/28 09:39:17;;;;;;;16.90;13.25;;;;;;;;;;4983491;28;20440;-83
2022/09/28 09:41:52;;;;;;;16.80;12.90;;;;;;;;;;4981573;28;20414;-83
2022/09/28 09:44:37;;;;;;;18.23;14.23;;;;;;;;;;4986874;28;20440;-85
2022/09/28 09:47:07;;;;;;;16.50;13.40;;;;;;;;;;4985300;28;20438;-85
2022/09/28 09:49:36;;;;;;;20.30;13.40;;;;;;;;;;4988106;28;20442;-82
2022/09/28 09:52:06;;;;;;;16.38;13.70;;;;;;;;;;4988188;28;20811;-84
2022/09/28 09:54:36;;;;;;;15.90;12.20;;;;;;;;;;4984747;28;20812;-82
2022/09/28 09:57:05;;;;;;;16.58;11.80;;;;;;;;;;4986152;28;20435;-84
2022/09/28 09:59:33;;;;;;;13.98;11.77;;;;;;;;;;4986669;28;20423;-84
2022/09/28 10:02:01;;;;;;;13.52;11.63;;;;;;;;;;4986932;28;20450;-82
2022/09/28 10:04:32;;;;;;;15.52;12.25;;;;;;;;;;4986376;28;20437;-80
2022/09/28 10:07:01;;;;;;;13.95;11.30;;;;;;;;;;4988497;28;20909;-83
2022/09/28 10:09:30;;;;;;;16.08;13.52;;;;;;;;;;4986699;28;20900;-84
2022/09/28 10:11:58;;;;;;;16.33;13.03;;;;;;;;;;4989403;28;20430;-81
2022/09/28 10:14:25;;;;;;;15.45;13.13;;;;;;;;;;4988568;28;20442;-81
2022/09/28 10:16:52;;;;;;;16.00;12.37;;;;;;;;;;4987664;28;20442;-81
2022/09/28 10:19:20;;;;;;;11.25;8.57;;;;;;;;;;4988486;28;20942;-82
2022/09/28 10:21:51;;;;;;;9.90;8.90;;;;;;;;;;4989043;28;20421;-82
2022/09/28 10:24:22;;;;;;;10.43;9.35;;;;;;;;;;4990355;28;20804;-82
2022/09/28 10:26:50;;;;;;;11.00;9.57;;;;;;;;;;4989195;28;20418;-82
2022/09/28 10:29:19;;;;;;;11.85;8.98;;;;;;;;;;4985934;28;20512;-82
2022/09/28 10:31:47;;;;;;;11.15;9.77;;;;;;;;;;4987292;28;20419;-82
2022/09/28 10:34:15;;;;;;;11.68;9.15;;;;;;;;;;4987841;28;20462;-83
2022/09/28 10:37:00;;;;;;;11.18;9.82;;;;;;;;;;4988970;28;20428;-82
2022/09/28 10:39:44;;;;;;;10.23;8.90;;;;;;;;;;4991240;28;20492;-82
2022/09/28 10:42:12;;;;;;;9.73;8.73;;;;;;;;;;4988124;28;20426;-81
2022/09/28 10:44:48;;;;;;;11.63;9.52;;;;;;;;;;4988550;28;20434;-82
2022/09/28 10:47:16;;;;;;;10.90;9.80;;;;;;;;;;4986358;28;20435;-82
2022/09/28 10:49:44;;;;;;;12.10;9.98;;;;;;;;;;4987176;28;20446;-81
2022/09/28 10:52:26;;;;;;;13.45;11.07;;;;;;;;;;4985843;28;20430;-82
2022/09/28 10:54:53;;;;;;;14.98;11.30;;;;;;;;;;4987607;28;20436;-80
2022/09/28 10:57:28;;;;;;;12.25;10.93;;;;;;;;;;4987976;28;20430;-82
2022/09/28 10:59:55;;;;;;;16.58;11.57;;;;;;;;;;4988823;28;20442;-80
2022/09/28 11:02:24;;;;;;;18.27;12.40;;;;;;;;;;4989547;28;20455;-82
2022/09/28 11:04:52;;;;;;;15.57;11.75;;;;;;;;;;4990091;28;20428;-80
2022/09/28 11:07:19;;;;;;;13.65;11.10;;;;;;;;;;4989603;28;20424;-82
2022/09/28 11:09:47;;;;;;;14.77;9.93;;;;;;;;;;4990559;28;20436;-80
2022/09/28 11:12:16;;;;;;;11.02;8.85;;;;;;;;;;4990131;28;20447;-80
2022/09/28 11:14:45;;;;;;;13.90;8.57;;;;;;;;;;4990138;28;20924;-81
2022/09/28 11:17:15;;;;;;;14.32;8.88;;;;;;;;;;4989329;28;20423;-81
2022/09/28 11:19:42;;;;;;;10.00;6.90;;;;;;;;;;4986595;28;20816;-80
2022/09/28 11:22:20;;;;;;;10.73;7.40;;;;;;;;;;4989846;28;20910;-82
2022/09/28 11:24:46;;;;;;;13.50;8.30;;;;;;;;;;4989283;28;20463;-82
2022/09/28 11:27:21;;;;;;;13.63;9.30;;;;;;;;;;4987823;28;20426;-82
2022/09/28 11:29:54;;;;;;;16.10;11.10;;;;;;;;;;4992545;28;20442;-82
2022/09/28 11:32:22;;;;;;;16.73;12.18;;;;;;;;;;4991523;28;20422;-80
2022/09/28 11:34:49;;;;;;;16.52;12.32;;;;;;;;;;4989067;28;20800;-80
2022/09/28 11:37:30;;;;;;;16.40;11.80;;;;;;;;;;4990556;28;20438;-80
2022/09/28 11:40:00;;;;;;;16.73;12.13;;;;;;;;;;4987608;28;20865;-80
2022/09/28 11:42:35;;;;;;;16.80;12.07;;;;;;;;;;4987374;28;20437;-81
2022/09/28 11:45:04;;;;;;;17.05;12.00;;;;;;;;;;4989517;28;20828;-82
2022/09/28 11:47:40;;;;;;;13.85;9.70;;;;;;;;;;4987359;28;20480;-82
2022/09/28 11:50:14;;;;;;;10.82;8.48;;;;;;;;;;4986340;28;20444;-79
2022/09/28 11:52:43;;;;;;;10.00;7.20;;;;;;;;;;4990282;28;20435;-82
2022/09/28 11:55:13;;;;;;;11.77;7.37;;;;;;;;;;4987349;28;20445;-81
2022/09/28 11:57:43;;;;;;;8.13;6.50;;;;;;;;;;4987510;28;20552;-80
2022/09/28 12:00:13;;;;;;;8.00;6.38;;;;;;;;;;4990657;28;20436;-80
2022/09/28 12:02:42;;;;;;;6.97;5.70;;;;;;;;;;4987525;28;20917;-80
2022/09/28 12:05:12;;;;;;;8.23;5.70;;;;;;;;;;4986379;28;20789;-82
2022/09/28 12:07:42;;;;;;;6.68;4.97;;;;;;;;;;4988467;28;20426;-80
2022/09/28 12:10:13;;;;;;;7.68;5.20;;;;;;;;;;4987894;28;20434;-80
2022/09/28 12:12:45;;;;;;;6.72;5.45;;;;;;;;;;4987836;28;20841;-83
2022/09/28 12:15:14;;;;;;;8.25;5.80;;;;;;;;;;4991613;28;20804;-81
2022/09/28 12:17:43;;;;;;;9.60;5.20;;;;;;;;;;4988714;28;20451;-82
2022/09/28 12:20:13;;;;;;;7.03;5.20;;;;;;;;;;4987328;28;20446;-80
2022/09/28 12:22:43;;;;;;;6.90;5.20;;;;;;;;;;4989354;28;20945;-81
2022/09/28 12:25:12;;;;;;;7.75;5.40;;;;;;;;;;4991684;28;20455;-80
2022/09/28 12:27:41;;;;;;;6.30;5.30;;;;;;;;;;4986001;28;20999;-80
2022/09/28 12:30:14;;;;;;;7.67;5.33;;;;;;;;;;4987077;28;20919;-80
2022/09/28 12:32:43;;;;;;;7.10;5.50;;;;;;;;;;4986410;28;20426;-82
2022/09/28 12:35:13;;;;;;;7.03;5.28;;;;;;;;;;4986536;28;20440;-83
2022/09/28 12:37:53;;;;;;;8.15;4.65;;;;;;;;;;4987018;28;20431;-82
2022/09/28 12:40:26;;;;;;;6.80;4.70;;;;;;;;;;4988574;28;20438;-82
2022/09/28 12:42:59;;;;;;;6.95;4.47;;;;;;;;;;4985192;28;20818;-80
2022/09/28 12:45:43;;;;;;;6.47;4.60;;;;;;;;;;4986685;28;20426;-80
2022/09/28 12:48:25;;;;;;;7.35;5.18;;;;;;;;;;4981963;28;20426;-81
2022/09/28 12:50:56;;;;;;;8.85;5.40;;;;;;;;;;4982220;28;20454;-80
2022/09/28 12:53:29;;;;;;;5.88;5.05;;;;;;;;;;4985210;28;20442;-81
2022/09/28 12:55:59;;;;;;;8.70;5.40;;;;;;;;;;4985764;28;20440;-80
2022/09/28 12:58:35;;;;;;;7.60;5.60;;;;;;;;;;4984467;28;20944;-81
2022/09/28 13:01:06;;;;;;;7.53;4.68;;;;;;;;;;4985090;28;20438;-80
2022/09/28 13:03:46;;;;;;;7.05;5.70;;;;;;;;;;4988655;28;20430;-81
2022/09/28 13:06:29;;;;;;;6.80;5.60;;;;;;;;;;4988126;28;20449;-81
2022/09/28 13:09:04;;;;;;;6.03;4.75;;;;;;;;;;4985282;28;20427;-80
2022/09/28 13:11:33;;;;;;;7.10;4.70;;;;;;;;;;4986046;28;20440;-80
2022/09/28 13:14:10;;;;;;;7.28;4.75;;;;;;;;;;4988648;28;20434;-81
2022/09/28 13:16:40;;;;;;;6.40;4.80;;;;;;;;;;4984532;28;20443;-81
2022/09/28 13:19:11;;;;;;;5.82;4.40;;;;;;;;;;5002770;28;20437;-81
2022/09/28 13:21:43;;;;;;;5.93;4.60;;;;;;;;;;4987670;28;20432;-82
2022/09/28 13:24:13;;;;;;;4.07;3.60;;;;;;;;;;4986359;28;20834;-81
2022/09/28 13:26:42;;;;;;;3.30;3.00;;;;;;;;;;4986331;28;20418;-81
2022/09/28 13:29:12;;;;;;;4.10;3.28;;;;;;;;;;4987228;28;20465;-81
2022/09/28 13:31:40;;;;;;;3.75;2.83;;;;;;;;;;4985654;28;20435;-81
2022/09/28 13:34:10;;;;;;;5.32;3.53;;;;;;;;;;4986107;28;20962;-81
2022/09/28 13:36:37;;;;;;;4.43;2.88;;;;;;;;;;4983388;28;20422;-80
2022/09/28 13:39:28;;;;;;;3.92;2.70;;;;;;;;;;4987650;28;20438;-80
2022/09/28 13:41:58;;;;;;;3.58;2.35;;;;;;;;;;4982715;28;20439;-80
2022/09/28 13:44:37;;;;;;;4.50;2.20;;;;;;;;;;4986892;28;20442;-80
2022/09/28 13:47:10;;;;;;;2.53;2.33;;;;;;;;;;4984626;28;20921;-82
2022/09/28 13:49:41;;;;;;;2.92;2.53;;;;;;;;;;4984854;28;20434;-82
2022/09/28 13:52:12;;;;;;;4.20;2.90;;;;;;;;;;4985384;28;20447;-82
2022/09/28 13:54:44;;;;;;;3.40;2.30;;;;;;;;;;4984697;28;20441;-82
2022/09/28 13:57:18;;;;;;;3.03;2.00;;;;;;;;;;4985712;28;21057;-82
2022/09/28 13:59:50;;;;;;;5.78;2.47;;;;;;;;;;4999488;28;20432;-80
2022/09/28 14:02:27;;;;;;;2.47;2.20;;;;;;;;;;4984253;28;20482;-80
2022/09/28 14:04:55;;;;;;;4.53;2.90;;;;;;;;;;4985472;28;20453;-80
2022/09/28 14:07:24;;;;;;;4.93;2.70;;;;;;;;;;4985518;28;20430;-82
2022/09/28 14:10:05;;;;;;;4.30;2.50;;;;;;;;;;4987295;28;20432;-81
2022/09/28 14:12:46;;;;;;;5.00;2.60;;;;;;;;;;4985817;28;20435;-81
2022/09/28 14:15:28;;;;;;;3.85;2.17;;;;;;;;;;4986226;28;20524;-81
2022/09/28 14:17:59;;;;;;;4.28;3.20;;;;;;;;;;4978991;28;20441;-82
2022/09/28 14:20:26;;;;;;;3.90;2.40;;;;;;;;;;4984381;28;20438;-81
2022/09/28 14:23:05;;;;;;;4.77;2.70;;;;;;;;;;4986244;28;20422;-81
2022/09/28 14:25:33;;;;;;;2.90;1.90;;;;;;;;;;4986551;28;20877;-80
2022/09/28 14:28:12;;;;;;;3.13;2.00;;;;;;;;;;4983166;28;20434;-81
2022/09/28 14:30:47;;;;;;;2.17;1.88;;;;;;;;;;4985951;28;20445;-81
2022/09/28 14:33:21;;;;;;;3.15;2.20;;;;;;;;;;4987742;28;20460;-81
2022/09/28 14:35:49;;;;;;;4.30;3.28;;;;;;;;;;5019832;28;20484;-81
2022/09/28 14:41:09;;;;;;;2.47;2.20;;;;;;;;;;4987934;28;20988;-81
2022/09/28 14:43:37;;;;;;;4.07;2.38;;;;;;;;;;4988887;28;20434;-81
2022/09/28 14:46:22;;;;;;;3.70;2.20;;;;;;;;;;4986758;28;20454;-81
2022/09/28 14:48:51;;;;;;;2.90;2.30;;;;;;;;;;4987431;28;20426;-81
2022/09/28 14:51:36;;;;;;;3.90;2.20;;;;;;;;;;4987774;28;20434;-81
2022/09/28 14:54:04;;;;;;;3.63;2.70;;;;;;;;;;4988742;28;20521;-81
2022/09/28 14:56:33;;;;;;;3.75;2.00;;;;;;;;;;4983518;28;20441;-81